Time;durP1;ratioP1;P1;durP2;ratioP2;P2;SDS_P1;SDS_P2;PMS_P1;PMS_P2;Temp;Humidity;BMP_temperature;BMP_pressure;BME280_temperature;BME280_humidity;BME280_pressure;Samples;Min_cycle;Max_cycle;Signal;HPM_P1;HPM_P2
2023/10/19 00:01:53;;;;;;;21.02;18.88;;;;;;;11.46;100.00;99180.78;5048337;28;20505;-80
2023/10/19 00:04:19;;;;;;;20.25;18.17;;;;;;;11.48;100.00;99189.34;5050822;28;20025;-79
2023/10/19 00:06:44;;;;;;;20.88;18.48;;;;;;;11.48;100.00;99194.63;5048778;28;20562;-79
2023/10/19 00:09:11;;;;;;;21.05;18.65;;;;;;;11.49;100.00;99194.47;5049773;28;20025;-79
2023/10/19 00:11:40;;;;;;;21.75;19.05;;;;;;;11.51;100.00;99199.56;5048855;28;20029;-80
2023/10/19 00:14:15;;;;;;;21.45;18.63;;;;;;;11.54;100.00;99186.09;5048023;28;20068;-80
2023/10/19 00:16:40;;;;;;;20.23;18.13;;;;;;;11.57;100.00;99185.75;5036808;28;20416;-79
2023/10/19 00:19:06;;;;;;;22.13;18.48;;;;;;;11.58;100.00;99187.41;5063674;28;20029;-77
2023/10/19 00:21:48;;;;;;;20.00;17.80;;;;;;;11.59;100.00;99176.72;5037466;28;20033;-77
2023/10/19 00:24:16;;;;;;;21.08;18.05;;;;;;;11.65;100.00;99183.16;5044968;28;20491;-80
2023/10/19 00:26:42;;;;;;;20.67;17.77;;;;;;;11.69;100.00;99173.97;5047570;28;20020;-79
2023/10/19 00:31:51;;;;;;;21.23;17.45;;;;;;;11.76;100.00;99174.13;5044268;28;20094;-79
2023/10/19 00:34:16;;;;;;;20.17;17.15;;;;;;;11.78;100.00;99178.28;5047667;28;20020;-78
2023/10/19 00:36:41;;;;;;;20.60;17.33;;;;;;;11.79;100.00;99174.66;5063178;28;20666;-77
2023/10/19 00:39:15;;;;;;;19.45;17.45;;;;;;;11.80;100.00;99178.13;5048736;28;20581;-77
2023/10/19 00:41:40;;;;;;;23.33;17.75;;;;;;;11.82;100.00;99173.50;5064021;28;20032;-77
2023/10/19 00:44:12;;;;;;;20.05;17.25;;;;;;;11.82;100.00;99169.06;5048016;28;20033;-78
2023/10/19 00:46:43;;;;;;;18.38;16.48;;;;;;;11.89;100.00;99171.88;5027998;28;20052;-76
2023/10/19 00:49:14;;;;;;;18.90;16.35;;;;;;;11.98;100.00;99175.31;5029470;28;20029;-81
2023/10/19 00:51:54;;;;;;;18.23;15.38;;;;;;;12.07;100.00;99162.00;5035293;28;20029;-81
2023/10/19 00:54:33;;;;;;;22.15;16.77;;;;;;;12.11;100.00;99173.06;5042035;28;20040;-81
2023/10/19 00:57:06;;;;;;;19.40;16.45;;;;;;;12.13;100.00;99171.91;5047965;28;20025;-80
2023/10/19 00:59:35;;;;;;;18.45;16.48;;;;;;;12.14;100.00;99167.44;5047270;28;20025;-81
2023/10/19 01:02:17;;;;;;;20.73;16.20;;;;;;;12.15;100.00;99164.66;5048081;28;20043;-80
2023/10/19 01:04:44;;;;;;;18.63;16.65;;;;;;;12.16;100.00;99171.56;5048779;28;20123;-78
2023/10/19 01:07:21;;;;;;;19.20;15.88;;;;;;;12.20;100.00;99172.06;5049596;28;20112;-78
2023/10/19 01:09:47;;;;;;;19.75;15.30;;;;;;;12.22;100.00;99167.44;5044823;28;20021;-78
2023/10/19 01:12:25;;;;;;;19.08;15.50;;;;;;;12.27;100.00;99167.75;5047865;28;20025;-78
2023/10/19 01:15:13;;;;;;;16.70;14.95;;;;;;;12.32;100.00;99167.25;5048466;28;20044;-79
2023/10/19 01:17:45;;;;;;;16.17;13.23;;;;;;;12.38;100.00;99172.69;5047904;28;20025;-78
2023/10/19 01:20:19;;;;;;;15.15;13.55;;;;;;;12.40;100.00;99162.81;5046574;28;20037;-77
2023/10/19 01:22:49;;;;;;;14.25;12.32;;;;;;;12.44;100.00;99166.78;5047805;28;20107;-76
2023/10/19 01:25:16;;;;;;;13.20;11.20;;;;;;;12.52;100.00;99160.66;5048063;28;20390;-77
2023/10/19 01:27:42;;;;;;;13.63;11.70;;;;;;;12.61;100.00;99158.84;5035868;28;20021;-77
2023/10/19 01:30:09;;;;;;;14.25;10.95;;;;;;;12.66;100.00;99159.97;5037387;28;20383;-77
2023/10/19 01:32:38;;;;;;;12.00;9.98;;;;;;;12.67;100.00;99161.63;5037637;28;20492;-77
2023/10/19 01:35:03;;;;;;;17.70;9.75;;;;;;;12.76;100.00;99162.41;5048021;28;20025;-77
2023/10/19 01:37:28;;;;;;;15.18;10.15;;;;;;;12.75;100.00;99161.59;5048523;28;20033;-77
2023/10/19 01:39:54;;;;;;;13.02;10.13;;;;;;;12.78;100.00;99158.63;5047257;28;20222;-80
2023/10/19 01:42:19;;;;;;;13.52;9.65;;;;;;;12.80;100.00;99158.44;5046752;28;20112;-77
2023/10/19 01:44:44;;;;;;;10.82;8.98;;;;;;;12.84;100.00;99157.97;5036774;28;20029;-77
2023/10/19 01:47:10;;;;;;;11.75;9.10;;;;;;;12.88;100.00;99150.53;5031676;28;21615;-77
2023/10/19 01:49:37;;;;;;;10.75;8.45;;;;;;;12.89;100.00;99154.00;5046575;28;20394;-77
2023/10/19 01:52:04;;;;;;;14.40;8.20;;;;;;;12.91;100.00;99160.75;5063302;28;20478;-77
2023/10/19 01:54:29;;;;;;;9.55;7.00;;;;;;;12.96;100.00;99158.41;5045655;28;20025;-77
2023/10/19 01:56:58;;;;;;;11.90;7.03;;;;;;;13.02;100.00;99157.72;5045541;28;20032;-77
2023/10/19 01:59:27;;;;;;;12.02;5.85;;;;;;;13.06;100.00;99151.13;5049301;28;20548;-77
2023/10/19 02:01:57;;;;;;;13.55;6.30;;;;;;;13.09;100.00;99158.69;5047567;28;20042;-77
2023/10/19 02:04:23;;;;;;;14.05;5.47;;;;;;;13.13;100.00;99154.72;5042889;28;20394;-76
2023/10/19 02:06:51;;;;;;;10.35;4.72;;;;;;;13.17;100.00;99163.97;5030411;28;20083;-76
2023/10/19 02:09:28;;;;;;;7.63;4.30;;;;;;;13.22;100.00;99157.38;5045510;28;20052;-77
2023/10/19 02:11:58;;;;;;;8.25;3.70;;;;;;;13.24;100.00;99160.66;5050202;28;20103;-77
2023/10/19 02:14:25;;;;;;;7.18;3.25;;;;;;;13.27;100.00;99157.69;5052732;28;20020;-76
2023/10/19 02:16:59;;;;;;;8.05;3.25;;;;;;;13.32;100.00;99152.69;5051228;28;20668;-76
2023/10/19 02:19:27;;;;;;;6.63;3.15;;;;;;;13.31;100.00;99140.50;5047524;28;20033;-77
2023/10/19 02:21:58;;;;;;;10.05;2.85;;;;;;;13.35;100.00;99147.06;5042231;28;20609;-77
2023/10/19 02:24:25;;;;;;;6.07;2.42;;;;;;;13.39;100.00;99148.38;5054176;28;20028;-76
2023/10/19 02:26:54;;;;;;;4.82;2.25;;;;;;;13.41;100.00;99149.00;5031942;28;20033;-76
2023/10/19 02:29:21;;;;;;;6.35;2.33;;;;;;;13.43;100.00;99150.47;5031977;28;20452;-76
2023/10/19 02:31:48;;;;;;;6.20;1.83;;;;;;;13.46;100.00;99149.31;5048978;28;20043;-76
2023/10/19 02:34:16;;;;;;;8.50;2.00;;;;;;;13.49;100.00;99144.50;5049966;28;20079;-76
2023/10/19 02:36:44;;;;;;;7.32;2.10;;;;;;;13.51;100.00;99146.97;5048265;28;20390;-76
2023/10/19 02:39:11;;;;;;;5.65;1.92;;;;;;;13.50;100.00;99140.03;5050076;28;20391;-76
2023/10/19 02:41:39;;;;;;;4.78;1.67;;;;;;;13.50;100.00;99137.41;5037598;28;20502;-77
2023/10/19 02:46:43;;;;;;;8.55;2.13;;;;;;;13.53;100.00;99133.59;5044718;28;20053;-77
2023/10/19 02:49:13;;;;;;;7.28;2.00;;;;;;;13.54;100.00;99133.41;5043982;28;20081;-76
2023/10/19 02:51:45;;;;;;;7.28;1.77;;;;;;;13.54;100.00;99135.22;5064870;28;20021;-76
2023/10/19 02:54:22;;;;;;;6.30;1.80;;;;;;;13.54;100.00;99146.63;5066975;28;20385;-78
2023/10/19 02:56:53;;;;;;;6.25;1.77;;;;;;;13.55;100.00;99134.22;5049744;28;20044;-78
2023/10/19 02:59:22;;;;;;;6.70;2.08;;;;;;;13.58;100.00;99136.53;5046661;28;20033;-78
2023/10/19 03:01:54;;;;;;;7.18;1.85;;;;;;;13.57;100.00;99129.59;5041284;28;20033;-78
2023/10/19 03:04:20;;;;;;;4.43;1.83;;;;;;;13.58;100.00;99128.59;5051143;28;20032;-77
2023/10/19 03:06:45;;;;;;;6.78;2.03;;;;;;;13.56;100.00;99123.47;5048501;28;20299;-77
2023/10/19 03:09:15;;;;;;;6.43;1.85;;;;;;;13.59;100.00;99125.78;5049598;28;20033;-76
2023/10/19 03:11:41;;;;;;;3.97;2.00;;;;;;;13.58;100.00;99126.78;5047973;28;20487;-77
2023/10/19 03:14:08;;;;;;;5.07;2.17;;;;;;;13.58;100.00;99134.69;5049575;28;20047;-77
2023/10/19 03:16:34;;;;;;;7.07;2.55;;;;;;;13.57;100.00;99130.41;5050459;28;20021;-77
2023/10/19 03:19:00;;;;;;;5.32;1.92;;;;;;;13.59;100.00;99120.50;5034246;28;20022;-77
2023/10/19 03:21:32;;;;;;;7.07;2.38;;;;;;;13.58;100.00;99116.19;5047725;28;20036;-77
2023/10/19 03:24:01;;;;;;;7.07;2.15;;;;;;;13.59;100.00;99117.84;5050230;28;20029;-78
2023/10/19 03:26:37;;;;;;;5.20;2.28;;;;;;;13.58;100.00;99116.19;5049503;28;20029;-78
2023/10/19 03:29:07;;;;;;;5.28;1.80;;;;;;;13.55;100.00;99110.44;5049962;28;20029;-78
2023/10/19 03:31:36;;;;;;;6.43;2.10;;;;;;;13.54;100.00;99109.63;5051578;28;20056;-77
2023/10/19 03:34:05;;;;;;;6.63;2.35;;;;;;;13.55;100.00;99107.81;5048780;28;20032;-78
2023/10/19 03:36:32;;;;;;;4.75;2.10;;;;;;;13.55;100.00;99105.16;5049648;28;20107;-78
2023/10/19 03:39:04;;;;;;;7.80;2.13;;;;;;;13.54;100.00;99103.53;5049848;28;20036;-77
2023/10/19 03:41:35;;;;;;;5.28;2.05;;;;;;;13.53;100.00;99104.50;5047894;28;20033;-78
2023/10/19 03:44:01;;;;;;;8.68;2.38;;;;;;;13.53;100.00;99102.69;5049838;28;20534;-79
2023/10/19 03:46:30;;;;;;;6.45;1.83;;;;;;;13.52;100.00;99108.16;5045560;28;20115;-78
2023/10/19 03:49:03;;;;;;;5.95;1.90;;;;;;;13.51;100.00;99107.34;5028652;28;20693;-78
2023/10/19 03:51:39;;;;;;;7.47;2.70;;;;;;;13.52;100.00;99103.69;5049194;28;20033;-78
2023/10/19 03:54:14;;;;;;;8.95;1.95;;;;;;;13.55;100.00;99105.16;5047803;28;20021;-78
2023/10/19 03:56:41;;;;;;;5.93;1.80;;;;;;;13.53;100.00;99097.41;5047970;28;20111;-78
2023/10/19 03:59:06;;;;;;;10.43;2.00;;;;;;;13.50;100.00;99103.03;5049728;28;20437;-78
2023/10/19 04:01:32;;;;;;;3.97;1.60;;;;;;;13.50;100.00;99100.41;5047917;28;20021;-78
2023/10/19 04:03:57;;;;;;;6.03;2.03;;;;;;;13.48;100.00;99094.47;5046259;28;20542;-78
2023/10/19 04:06:23;;;;;;;18.67;2.47;;;;;;;13.44;100.00;99103.75;5048775;28;20056;-78
2023/10/19 04:08:50;;;;;;;6.15;1.88;;;;;;;13.41;100.00;99093.53;5047471;28;20387;-78
2023/10/19 04:11:23;;;;;;;8.73;1.92;;;;;;;13.41;100.00;99096.19;5048533;28;20049;-78
2023/10/19 04:13:53;;;;;;;8.00;2.10;;;;;;;13.41;100.00;99098.81;5029213;28;20025;-78
2023/10/19 04:16:19;;;;;;;5.97;2.00;;;;;;;13.40;100.00;99097.19;5044430;28;20029;-78
2023/10/19 04:18:44;;;;;;;8.60;1.95;;;;;;;13.40;100.00;99091.91;5049093;28;20020;-78
2023/10/19 04:21:10;;;;;;;5.70;1.65;;;;;;;13.42;100.00;99089.91;5064182;28;20391;-78
2023/10/19 04:23:36;;;;;;;7.30;1.85;;;;;;;13.41;100.00;99093.53;5035467;28;20029;-78
2023/10/19 04:26:10;;;;;;;5.55;2.10;;;;;;;13.40;100.00;99098.00;5029902;28;20028;-78
2023/10/19 04:28:44;;;;;;;5.20;1.88;;;;;;;13.39;100.00;99098.19;5038196;28;20028;-77
2023/10/19 04:31:13;;;;;;;5.75;1.75;;;;;;;13.39;100.00;99100.81;5047618;28;20414;-79
2023/10/19 04:33:42;;;;;;;6.85;1.73;;;;;;;13.38;100.00;99096.53;5044267;28;20032;-78
2023/10/19 04:36:11;;;;;;;4.57;1.60;;;;;;;13.37;100.00;99097.53;5029428;28;20021;-78
2023/10/19 04:38:36;;;;;;;6.80;1.80;;;;;;;13.34;100.00;99092.59;5034266;28;20526;-77
2023/10/19 04:41:09;;;;;;;6.90;1.75;;;;;;;13.30;100.00;99107.16;5036972;28;20021;-78
2023/10/19 04:43:39;;;;;;;6.30;1.90;;;;;;;13.29;100.00;99098.41;5036057;28;20588;-78
2023/10/19 04:46:12;;;;;;;11.07;2.20;;;;;;;13.29;100.00;99098.41;5043185;28;20554;-78
2023/10/19 04:48:41;;;;;;;7.63;1.58;;;;;;;13.27;100.00;99103.03;5030270;28;20021;-77
2023/10/19 04:51:09;;;;;;;4.43;1.40;;;;;;;13.26;100.00;99106.66;5043431;28;20136;-78
2023/10/19 04:53:38;;;;;;;4.30;1.60;;;;;;;13.28;100.00;99114.41;5051006;28;20071;-78
2023/10/19 04:56:05;;;;;;;5.90;1.88;;;;;;;13.25;100.00;99104.22;5050298;28;20039;-78
2023/10/19 04:58:31;;;;;;;7.88;1.63;;;;;;;13.25;100.00;99104.22;5049061;28;20021;-78
2023/10/19 05:00:58;;;;;;;10.32;1.98;;;;;;;13.23;100.00;99109.66;5048064;28;20445;-77
2023/10/19 05:03:24;;;;;;;8.93;2.17;;;;;;;13.24;100.00;99108.66;5045853;28;20398;-79
2023/10/19 05:05:51;;;;;;;9.13;1.90;;;;;;;13.25;100.00;99112.13;5045776;28;20025;-78
2023/10/19 05:08:16;;;;;;;7.80;1.80;;;;;;;13.24;100.00;99108.66;5047613;28;20044;-78
2023/10/19 05:10:42;;;;;;;6.20;1.70;;;;;;;13.23;100.00;99117.59;5047997;28;20022;-77
2023/10/19 05:13:07;;;;;;;8.93;1.90;;;;;;;13.21;100.00;99109.00;5045847;28;20025;-77
2023/10/19 05:15:34;;;;;;;6.60;1.80;;;;;;;13.21;100.00;99114.28;5046891;28;20031;-77
2023/10/19 05:18:00;;;;;;;8.98;2.17;;;;;;;13.21;100.00;99113.44;5062967;28;20025;-79
2023/10/19 05:20:25;;;;;;;9.90;2.00;;;;;;;13.20;100.00;99109.16;5052329;28;20017;-79
2023/10/19 05:22:51;;;;;;;10.57;2.25;;;;;;;13.20;100.00;99117.91;5045931;28;20383;-79
2023/10/19 05:25:16;;;;;;;9.07;2.58;;;;;;;13.18;100.00;99118.06;5048214;28;20040;-79
2023/10/19 05:27:42;;;;;;;9.77;2.22;;;;;;;13.17;100.00;99113.78;5048659;28;20029;-79
2023/10/19 05:30:11;;;;;;;8.35;2.20;;;;;;;13.16;100.00;99112.13;5046911;28;20021;-79
2023/10/19 05:32:37;;;;;;;8.90;2.25;;;;;;;13.16;100.00;99117.41;5033248;28;20036;-80
2023/10/19 05:35:04;;;;;;;10.93;2.17;;;;;;;13.17;100.00;99120.88;5051716;28;20483;-79
2023/10/19 05:37:30;;;;;;;7.53;2.13;;;;;;;13.16;100.00;99127.13;5053321;28;20036;-79
2023/10/19 05:39:56;;;;;;;7.90;2.17;;;;;;;13.16;100.00;99127.97;5044817;28;20029;-80
2023/10/19 05:42:22;;;;;;;8.18;2.05;;;;;;;13.16;100.00;99122.69;5035228;28;20029;-80
2023/10/19 05:44:47;;;;;;;8.20;2.17;;;;;;;13.15;100.00;99130.78;5043355;28;20056;-81
2023/10/19 05:47:13;;;;;;;7.55;2.50;;;;;;;13.12;100.00;99126.66;5048423;28;20060;-77
2023/10/19 05:49:38;;;;;;;8.45;2.53;;;;;;;13.13;100.00;99133.59;5051128;28;20100;-79
2023/10/19 05:52:03;;;;;;;10.00;2.20;;;;;;;13.13;100.00;99135.41;5051977;28;20048;-79
2023/10/19 05:54:29;;;;;;;9.05;2.25;;;;;;;13.14;100.00;99131.78;5052839;28;20017;-79
2023/10/19 05:56:55;;;;;;;10.00;2.25;;;;;;;13.11;100.00;99135.56;5052764;28;20922;-80
2023/10/19 05:59:23;;;;;;;11.65;2.50;;;;;;;13.11;100.00;99135.56;5067823;28;20560;-79
2023/10/19 06:01:48;;;;;;;15.07;2.90;;;;;;;13.11;100.00;99140.03;5047414;28;20037;-80
2023/10/19 06:04:14;;;;;;;8.93;2.63;;;;;;;13.08;100.00;99135.91;5055836;28;20051;-79
2023/10/19 06:06:39;;;;;;;11.25;2.75;;;;;;;13.10;100.00;99133.94;5057049;28;20025;-77
2023/10/19 06:09:08;;;;;;;9.90;2.40;;;;;;;13.11;100.00;99126.84;5056855;28;20033;-78
2023/10/19 06:11:37;;;;;;;8.52;2.67;;;;;;;13.09;100.00;99132.28;5049787;28;20040;-78
2023/10/19 06:14:03;;;;;;;8.63;2.47;;;;;;;13.09;100.00;99142.84;5051899;28;20025;-78
2023/10/19 06:16:28;;;;;;;9.07;2.60;;;;;;;13.08;100.00;99143.84;5049097;28;20029;-78
2023/10/19 06:18:54;;;;;;;10.68;2.50;;;;;;;13.10;100.00;99148.94;5050046;28;20630;-78
2023/10/19 06:21:19;;;;;;;10.02;2.53;;;;;;;13.09;100.00;99148.13;5051166;28;20035;-79
2023/10/19 06:23:45;;;;;;;14.98;3.20;;;;;;;13.08;100.00;99140.38;5062679;28;20428;-79
2023/10/19 06:26:15;;;;;;;8.80;2.40;;;;;;;13.09;100.00;99137.56;5064252;28;20041;-78
2023/10/19 06:28:40;;;;;;;9.15;2.72;;;;;;;13.08;100.00;99141.19;5052760;28;20021;-81
2023/10/19 06:31:06;;;;;;;11.50;2.92;;;;;;;13.09;100.00;99140.22;5057852;28;20035;-79
2023/10/19 06:33:33;;;;;;;12.70;3.00;;;;;;;13.09;100.00;99148.13;5057666;28;20146;-79
2023/10/19 06:36:03;;;;;;;11.13;2.72;;;;;;;13.10;100.00;99154.22;5050390;28;20039;-78
2023/10/19 06:38:28;;;;;;;11.15;2.83;;;;;;;13.10;100.00;99156.88;5050845;28;20025;-78
2023/10/19 06:40:54;;;;;;;7.97;2.35;;;;;;;13.11;100.00;99161.97;5059739;28;20492;-79
2023/10/19 06:43:23;;;;;;;13.05;2.78;;;;;;;13.12;100.00;99163.63;5071848;28;20020;-78
2023/10/19 06:45:48;;;;;;;10.00;2.80;;;;;;;13.12;100.00;99161.00;5054594;28;20048;-77
2023/10/19 06:48:15;;;;;;;13.10;2.67;;;;;;;13.14;100.00;99155.53;5050615;28;20394;-78
2023/10/19 06:50:40;;;;;;;11.00;2.65;;;;;;;13.15;100.00;99158.00;5046324;28;20040;-78
2023/10/19 06:53:05;;;;;;;10.20;2.55;;;;;;;13.18;100.00;99160.31;5049240;28;20021;-79
2023/10/19 06:55:31;;;;;;;13.30;2.72;;;;;;;13.21;100.00;99160.97;5052018;28;20074;-78
2023/10/19 06:57:56;;;;;;;9.82;2.67;;;;;;;13.26;100.00;99163.97;5058405;28;20494;-79
2023/10/19 07:00:26;;;;;;;13.82;3.08;;;;;;;13.27;100.00;99166.44;5072545;28;20124;-79
2023/10/19 07:02:52;;;;;;;8.57;2.70;;;;;;;13.31;100.00;99165.09;5054478;28;20071;-80
2023/10/19 07:05:21;;;;;;;12.45;2.65;;;;;;;13.31;100.00;99170.38;5052218;28;20029;-79
2023/10/19 07:07:47;;;;;;;11.63;2.80;;;;;;;13.35;100.00;99170.84;5050123;28;20033;-77
2023/10/19 07:10:14;;;;;;;13.02;3.10;;;;;;;13.38;100.00;99173.13;5051529;28;20036;-77
2023/10/19 07:12:44;;;;;;;12.65;2.92;;;;;;;13.39;100.00;99170.31;5064897;28;20067;-76
2023/10/19 07:15:18;;;;;;;11.40;2.92;;;;;;;13.42;100.00;99164.69;5051234;28;20028;-76
2023/10/19 07:17:45;;;;;;;8.18;2.80;;;;;;;13.45;100.00;99168.81;5050282;28;20029;-75
2023/10/19 07:23:03;;;;;;;12.23;2.53;;;;;;;13.50;100.00;99171.75;5050446;28;20048;-77
2023/10/19 07:25:29;;;;;;;8.75;2.33;;;;;;;13.52;100.00;99168.94;5043373;28;20025;-76
2023/10/19 07:27:54;;;;;;;10.15;2.50;;;;;;;13.52;100.00;99167.09;5050961;28;20180;-75
2023/10/19 07:30:21;;;;;;;15.25;2.92;;;;;;;13.52;100.00;99164.47;5050995;28;20036;-77
2023/10/19 07:32:54;;;;;;;11.98;3.03;;;;;;;13.54;100.00;99159.84;5034876;28;20032;-80
2023/10/19 07:35:21;;;;;;;10.63;3.40;;;;;;;13.57;100.00;99159.47;5049270;28;20032;-79
2023/10/19 07:37:48;;;;;;;11.23;3.10;;;;;;;13.58;100.00;99155.84;5048102;28;20028;-80
2023/10/19 07:40:14;;;;;;;12.77;3.45;;;;;;;13.58;100.00;99153.19;5050402;28;20104;-80
2023/10/19 07:42:42;;;;;;;10.07;3.42;;;;;;;13.61;100.00;99152.88;5049855;28;20111;-80
2023/10/19 07:45:11;;;;;;;11.27;3.20;;;;;;;13.64;100.00;99155.16;5050919;28;20025;-80
2023/10/19 07:47:40;;;;;;;12.70;3.20;;;;;;;13.66;100.00;99155.81;5048521;28;20082;-80
2023/10/19 07:50:16;;;;;;;14.18;3.70;;;;;;;13.70;100.00;99157.13;5048685;28;20033;-80
2023/10/19 07:52:49;;;;;;;12.32;2.80;;;;;;;13.73;100.00;99156.75;5048897;28;20410;-80
2023/10/19 07:55:18;;;;;;;11.23;3.17;;;;;;;13.76;100.00;99161.69;5049089;28;20028;-80
2023/10/19 07:57:44;;;;;;;8.27;2.60;;;;;;;13.79;100.00;99156.06;5048449;28;20032;-80
2023/10/19 08:00:13;;;;;;;10.75;3.08;;;;;;;13.81;100.00;99153.22;5050405;28;20803;-80
2023/10/19 08:02:41;;;;;;;10.75;2.70;;;;;;;13.83;100.00;99153.06;5050824;28;20032;-80
2023/10/19 08:05:11;;;;;;;11.10;2.72;;;;;;;13.84;100.00;99142.31;5051317;28;20030;-80
2023/10/19 08:07:39;;;;;;;10.30;2.75;;;;;;;13.85;100.00;99143.94;5038563;28;20060;-80
2023/10/19 08:10:10;;;;;;;9.88;2.75;;;;;;;13.88;100.00;99140.94;5049021;28;20035;-80
2023/10/19 08:12:42;;;;;;;11.20;2.95;;;;;;;13.92;100.00;99144.06;5048442;28;20037;-80
2023/10/19 08:15:13;;;;;;;11.52;2.85;;;;;;;13.98;100.00;99144.19;5049884;28;20168;-80
2023/10/19 08:17:39;;;;;;;12.50;2.63;;;;;;;14.02;100.00;99132.28;5049445;28;20029;-80
2023/10/19 08:20:09;;;;;;;11.65;2.75;;;;;;;14.08;100.00;99138.66;5051479;28;20025;-81
2023/10/19 08:22:37;;;;;;;10.23;2.50;;;;;;;14.18;100.00;99133.94;5050250;28;20398;-80
2023/10/19 08:25:11;;;;;;;9.15;2.40;;;;;;;14.23;100.00;99131.59;5051138;28;20053;-80
2023/10/19 08:27:37;;;;;;;13.98;3.10;;;;;;;14.27;100.00;99132.88;5048822;28;20033;-80
2023/10/19 08:30:03;;;;;;;14.25;2.60;;;;;;;14.35;100.00;99135.44;5049970;28;20017;-80
2023/10/19 08:32:28;;;;;;;10.88;2.35;;;;;;;14.40;100.00;99132.25;5061442;28;20036;-80
2023/10/19 08:34:54;;;;;;;10.48;2.67;;;;;;;14.48;100.00;99129.56;5029206;28;20438;-80
2023/10/19 08:37:19;;;;;;;11.52;2.45;;;;;;;14.50;100.00;99132.03;5035065;28;20025;-80
2023/10/19 08:39:45;;;;;;;12.90;2.60;;;;;;;14.53;100.00;99136.97;5049256;28;20028;-80
2023/10/19 08:42:10;;;;;;;11.32;2.58;;;;;;;14.59;100.00;99133.59;5046976;28;20024;-80
2023/10/19 08:44:36;;;;;;;12.07;2.63;;;;;;;14.65;100.00;99128.41;5049154;28;20056;-80
2023/10/19 08:47:01;;;;;;;12.75;2.95;;;;;;;14.76;100.00;99127.13;5049942;28;20148;-80
2023/10/19 08:49:27;;;;;;;9.88;2.50;;;;;;;14.97;100.00;99127.22;5048959;28;20037;-80
2023/10/19 08:51:55;;;;;;;12.55;2.90;;;;;;;15.14;100.00;99125.16;5042514;28;20029;-80
2023/10/19 08:54:21;;;;;;;8.95;2.33;;;;;;;15.32;100.00;99127.44;5047015;28;20404;-80
2023/10/19 08:56:47;;;;;;;16.27;2.90;;;;;;;15.46;100.00;99123.94;5043300;28;20022;-80
2023/10/19 08:59:15;;;;;;;14.48;2.50;;;;;;;15.51;100.00;99132.13;5030539;28;20029;-80
2023/10/19 09:01:44;;;;;;;13.02;2.70;;;;;;;15.60;100.00;99131.03;5045776;28;20671;-80
2023/10/19 09:04:13;;;;;;;8.68;2.47;;;;;;;15.71;100.00;99126.28;5048603;28;20386;-80
2023/10/19 09:06:41;;;;;;;9.43;2.25;;;;;;;15.78;100.00;99122.66;5063640;28;20119;-80
2023/10/19 09:09:16;;;;;;;11.13;2.75;;;;;;;15.91;100.00;99114.84;5047333;28;20037;-81
2023/10/19 09:11:48;;;;;;;9.52;2.25;;;;;;;16.04;100.00;99110.69;5045480;28;20029;-80
2023/10/19 09:14:17;;;;;;;9.77;2.60;;;;;;;16.20;100.00;99100.59;5056775;28;20026;-81
2023/10/19 09:16:55;;;;;;;9.88;2.40;;;;;;;16.23;100.00;99110.81;5030551;28;20527;-81
2023/10/19 09:19:47;;;;;;;13.45;2.58;;;;;;;16.14;100.00;99100.53;5029569;28;20017;-81
2023/10/19 09:22:22;;;;;;;13.35;2.85;;;;;;;16.20;100.00;99091.81;5038733;28;20374;-81
2023/10/19 09:24:53;;;;;;;12.13;2.40;;;;;;;16.19;100.00;99096.31;5048152;28;20548;-80
2023/10/19 09:27:19;;;;;;;12.20;2.33;;;;;;;16.24;100.00;99095.72;5050177;28;20478;-80
2023/10/19 09:29:45;;;;;;;12.90;2.65;;;;;;;16.27;100.00;99093.50;5046780;28;20032;-80
2023/10/19 09:32:13;;;;;;;10.57;2.28;;;;;;;16.49;100.00;99101.41;5044143;28;20033;-80
2023/10/19 09:34:40;;;;;;;10.75;2.45;;;;;;;16.57;100.00;99101.25;5060744;28;20385;-80
2023/10/19 09:37:06;;;;;;;10.07;2.38;;;;;;;16.68;100.00;99103.41;5048291;28;20029;-80
2023/10/19 09:39:38;;;;;;;12.10;2.70;;;;;;;16.69;100.00;99104.22;5048114;28;20028;-80
2023/10/19 09:42:10;;;;;;;12.82;2.53;;;;;;;16.84;100.00;99111.06;5048848;28;20498;-81
2023/10/19 09:44:43;;;;;;;;;;;;;;;17.01;100.00;99103.59;5064219;28;20037;-80
2023/10/19 09:47:12;;;;;;;9.10;2.50;;;;;;;16.99;100.00;99094.16;5047584;28;20010;-80
2023/10/19 09:49:38;;;;;;;8.50;2.25;;;;;;;16.99;100.00;99088.84;5041010;28;20052;-80
2023/10/19 09:52:07;;;;;;;10.07;2.65;;;;;;;16.99;100.00;99088.84;5039642;28;20032;-80
2023/10/19 09:54:52;;;;;;;9.40;2.30;;;;;;;16.96;100.00;99089.25;5046288;28;20025;-80
2023/10/19 09:57:26;;;;;;;9.63;2.28;;;;;;;16.91;100.00;99088.00;5047422;28;20060;-80
2023/10/19 09:59:59;;;;;;;11.32;2.13;;;;;;;16.95;100.00;99087.63;5041125;28;20055;-79
2023/10/19 10:02:25;;;;;;;10.43;2.60;;;;;;;16.98;100.00;99077.41;5036091;28;20326;-80
2023/10/19 10:04:51;;;;;;;12.07;2.75;;;;;;;17.00;100.00;99071.88;5047394;28;20370;-80
2023/10/19 10:07:17;;;;;;;11.13;2.50;;;;;;;17.11;100.00;99079.28;5058206;28;20025;-80
2023/10/19 10:09:46;;;;;;;8.32;2.20;;;;;;;17.17;100.00;99075.84;5045939;28;20032;-80
2023/10/19 10:12:23;;;;;;;10.00;2.50;;;;;;;17.19;100.00;99073.78;5047388;28;20159;-80
2023/10/19 10:14:57;;;;;;;9.73;2.80;;;;;;;17.27;100.00;99086.94;5047868;28;20025;-80
2023/10/19 10:17:24;;;;;;;11.02;2.30;;;;;;;17.25;100.00;99086.31;5049251;28;20585;-80
2023/10/19 10:19:50;;;;;;;12.98;2.65;;;;;;;17.28;100.00;99077.94;5050492;28;20395;-80
2023/10/19 10:22:21;;;;;;;11.57;2.80;;;;;;;17.33;100.00;99077.34;5052293;28;20078;-80
2023/10/19 10:24:48;;;;;;;9.52;2.45;;;;;;;17.35;100.00;99089.41;5046284;28;20048;-79
2023/10/19 10:27:19;;;;;;;12.55;2.38;;;;;;;17.34;100.00;99098.41;5051009;28;20029;-80
2023/10/19 10:29:58;;;;;;;13.00;2.20;;;;;;;17.45;100.00;99100.47;5051788;28;20509;-80
2023/10/19 10:32:43;;;;;;;10.60;2.33;;;;;;;17.46;100.00;99090.66;5067242;28;20094;-80
2023/10/19 10:35:08;;;;;;;9.48;2.42;;;;;;;17.41;100.00;99077.13;5052057;28;20471;-80
2023/10/19 10:37:37;;;;;;;14.90;2.63;;;;;;;17.46;100.00;99090.66;5051698;28;20035;-80
2023/10/19 10:40:05;;;;;;;11.05;2.65;;;;;;;17.46;100.00;99080.00;5067881;28;20020;-80
2023/10/19 10:42:31;;;;;;;11.40;2.50;;;;;;;17.43;100.00;99078.56;5050323;28;20033;-80
2023/10/19 10:44:56;;;;;;;8.40;2.38;;;;;;;17.42;100.00;99092.91;5056420;28;20021;-80
2023/10/19 10:47:24;;;;;;;9.75;2.45;;;;;;;17.46;100.00;99083.50;5051317;28;20061;-79
2023/10/19 10:49:54;;;;;;;12.15;2.65;;;;;;;17.46;100.00;99090.66;5051116;28;20043;-79
2023/10/19 10:52:28;;;;;;;9.25;2.70;;;;;;;17.47;100.00;99086.97;5050520;28;20486;-79
2023/10/19 10:54:55;;;;;;;11.98;2.75;;;;;;;17.45;100.00;99089.84;5049855;28;20025;-79
2023/10/19 10:57:20;;;;;;;12.90;2.63;;;;;;;17.43;100.00;99094.53;5049711;28;20104;-78
2023/10/19 10:59:45;;;;;;;10.43;2.10;;;;;;;17.42;100.00;99092.06;5050553;28;20104;-79
2023/10/19 11:02:19;;;;;;;10.23;2.22;;;;;;;17.40;100.00;99076.31;5049302;28;20112;-79
2023/10/19 11:04:45;;;;;;;9.35;2.78;;;;;;;17.30;100.00;99078.56;5047761;28;20063;-77
2023/10/19 11:07:18;;;;;;;12.80;2.83;;;;;;;17.32;100.00;99067.72;5049555;28;20033;-77
2023/10/19 11:09:44;;;;;;;10.88;2.53;;;;;;;17.34;100.00;99071.81;5038684;28;20404;-77
2023/10/19 11:12:12;;;;;;;7.95;2.22;;;;;;;17.34;100.00;99069.16;5047784;28;20025;-78
2023/10/19 11:14:37;;;;;;;8.55;2.38;;;;;;;17.27;100.00;99063.00;5049610;28;20028;-77
2023/10/19 11:17:15;;;;;;;11.20;2.58;;;;;;;17.32;100.00;99052.59;5037996;28;20035;-78
2023/10/19 11:19:40;;;;;;;11.15;2.67;;;;;;;17.35;100.00;99057.50;5045100;28;20395;-78
2023/10/19 11:22:09;;;;;;;11.00;2.65;;;;;;;17.38;100.00;99046.47;5048596;28;20028;-78
2023/10/19 11:24:40;;;;;;;9.88;2.70;;;;;;;17.54;100.00;99046.06;5049966;28;20063;-77
2023/10/19 11:27:07;;;;;;;11.05;2.72;;;;;;;17.64;100.00;99045.69;5049147;28;20475;-77
2023/10/19 11:29:33;;;;;;;13.88;2.65;;;;;;;17.62;100.00;99042.41;5050946;28;20048;-77
2023/10/19 11:32:00;;;;;;;8.30;2.47;;;;;;;17.66;100.00;99042.84;5041632;28;20025;-77
2023/10/19 11:34:26;;;;;;;11.75;2.78;;;;;;;17.61;100.00;99042.59;5044940;28;20025;-77